createdAt,value
2023-01-18T00:00:39.272Z,31.92
2023-01-18T00:03:08.902Z,31.86
2023-01-18T00:05:41.096Z,31.90
2023-01-18T00:08:12.703Z,31.96
2023-01-18T00:10:40.172Z,31.78
2023-01-18T00:13:06.987Z,32.04
2023-01-18T00:15:34.752Z,32.38
2023-01-18T00:18:01.981Z,32.42
2023-01-18T00:20:30.070Z,31.95
2023-01-18T00:22:59.783Z,31.52
2023-01-18T00:25:26.702Z,31.28
2023-01-18T00:27:55.066Z,31.70
2023-01-18T00:30:27.768Z,32.32
2023-01-18T00:32:57.466Z,31.91
2023-01-18T00:35:26.155Z,31.71
2023-01-18T00:37:53.960Z,31.73
2023-01-18T00:40:22.219Z,31.93
2023-01-18T00:43:07.718Z,32.03
2023-01-18T00:45:34.824Z,31.64
2023-01-18T00:48:02.710Z,31.91
2023-01-18T00:50:30.116Z,32.30
2023-01-18T00:52:58.692Z,31.83
2023-01-18T00:55:26.628Z,31.93
2023-01-18T00:57:53.842Z,31.79
2023-01-18T01:00:26.679Z,32.23
2023-01-18T01:02:54.504Z,32.63
2023-01-18T01:05:42.696Z,32.71
2023-01-18T01:08:16.943Z,33.25
2023-01-18T01:10:46.484Z,33.21
2023-01-18T01:13:38.862Z,32.93
2023-01-18T01:16:25.741Z,33.56
2023-01-18T01:19:11.418Z,33.64
2023-01-18T01:21:57.577Z,33.99
2023-01-18T01:24:42.988Z,33.96
2023-01-18T01:27:11.355Z,33.42
2023-01-18T01:29:38.622Z,33.40
2023-01-18T01:32:05.857Z,33.77
2023-01-18T01:34:33.149Z,33.86
2023-01-18T01:36:59.987Z,34.12
2023-01-18T01:39:26.805Z,33.93
2023-01-18T01:41:53.980Z,34.92
2023-01-18T01:44:20.845Z,34.01
2023-01-18T01:46:52.270Z,33.57
2023-01-18T01:49:32.323Z,33.28
2023-01-18T01:52:05.040Z,32.93
2023-01-18T01:54:58.088Z,33.56
2023-01-18T01:57:28.908Z,33.63
2023-01-18T02:00:04.102Z,34.69
2023-01-18T02:02:39.584Z,33.60
2023-01-18T02:05:09.473Z,33.50
2023-01-18T02:07:36.351Z,33.26
2023-01-18T02:10:04.929Z,33.38
2023-01-18T02:12:33.001Z,32.59
2023-01-18T02:15:00.540Z,34.01
2023-01-18T02:17:47.683Z,32.33
2023-01-18T02:20:48.547Z,32.86
2023-01-18T02:23:42.488Z,33.73
2023-01-18T02:26:30.509Z,32.76
2023-01-18T02:29:18.306Z,33.81
2023-01-18T02:32:14.142Z,34.78
2023-01-18T02:34:48.257Z,33.78
2023-01-18T02:38:09.123Z,33.84
2023-01-18T02:40:54.980Z,33.87
2023-01-18T02:43:43.508Z,33.80
2023-01-18T02:46:33.661Z,33.82
2023-01-18T02:49:08.530Z,33.58
2023-01-18T02:51:35.706Z,33.72
2023-01-18T02:54:24.330Z,33.58
2023-01-18T02:56:54.001Z,33.88
2023-01-18T02:59:20.683Z,34.12
2023-01-18T03:01:53.472Z,34.73
2023-01-18T03:04:28.970Z,36.56
2023-01-18T03:07:21.495Z,35.06
2023-01-18T03:09:48.774Z,34.04
2023-01-18T03:12:18.552Z,32.92
2023-01-18T03:14:54.800Z,32.75
2023-01-18T03:17:46.765Z,32.85
2023-01-18T03:20:19.635Z,32.42
2023-01-18T03:23:10.432Z,32.16
2023-01-18T03:25:41.329Z,33.22
2023-01-18T03:28:38.195Z,32.37
2023-01-18T03:31:28.695Z,31.43
2023-01-18T03:34:14.327Z,31.53
2023-01-18T03:36:47.845Z,32.06
2023-01-18T03:39:23.587Z,32.37
2023-01-18T03:41:53.759Z,31.75
2023-01-18T03:44:29.373Z,32.22
2023-01-18T03:46:57.383Z,32.29
2023-01-18T03:49:27.355Z,31.95
2023-01-18T03:51:59.951Z,31.90
2023-01-18T03:54:41.906Z,32.10
2023-01-18T03:57:38.718Z,32.68
2023-01-18T04:00:09.461Z,32.32
2023-01-18T04:02:47.159Z,31.85
2023-01-18T04:05:14.668Z,31.58
2023-01-18T04:07:42.808Z,31.57
2023-01-18T04:10:11.006Z,31.90
2023-01-18T04:12:37.763Z,32.99
2023-01-18T04:15:05.269Z,32.85
2023-01-18T04:17:32.057Z,31.42
2023-01-18T04:19:58.915Z,30.75
2023-01-18T04:22:26.760Z,30.44
2023-01-18T04:24:53.665Z,31.21
2023-01-18T04:27:20.659Z,31.53
2023-01-18T04:29:48.059Z,31.60
2023-01-18T04:32:14.800Z,31.88
2023-01-18T04:34:41.667Z,31.38
2023-01-18T04:37:08.869Z,31.52
2023-01-18T04:39:36.709Z,30.78
2023-01-18T04:42:03.617Z,31.94
2023-01-18T04:44:30.364Z,32.40
2023-01-18T04:46:57.122Z,32.16
2023-01-18T04:49:24.208Z,31.30
2023-01-18T04:51:51.084Z,31.86
2023-01-18T04:54:19.106Z,30.61
2023-01-18T04:56:46.107Z,30.07
2023-01-18T04:59:16.047Z,30.28
2023-01-18T05:01:43.312Z,30.87
2023-01-18T05:04:10.356Z,30.93
2023-01-18T05:06:37.197Z,30.28
2023-01-18T05:09:04.060Z,30.27
2023-01-18T05:11:31.079Z,30.61
2023-01-18T05:13:57.785Z,30.48
2023-01-18T05:16:24.901Z,30.18
2023-01-18T05:18:51.827Z,30.01
2023-01-18T05:21:18.816Z,30.42
2023-01-18T05:23:45.976Z,31.03
2023-01-18T05:26:19.071Z,30.21
2023-01-18T05:28:46.501Z,30.75
2023-01-18T05:31:14.899Z,30.07
2023-01-18T05:33:41.763Z,30.43
2023-01-18T05:36:08.811Z,30.97
2023-01-18T05:38:35.580Z,30.91
2023-01-18T05:41:02.528Z,31.40
2023-01-18T05:43:30.006Z,30.07
2023-01-18T05:45:57.300Z,29.52
2023-01-18T05:48:24.725Z,29.92
2023-01-18T05:50:55.332Z,30.39
2023-01-18T05:53:23.024Z,30.56
2023-01-18T05:55:58.757Z,30.38
2023-01-18T05:58:26.916Z,30.01
2023-01-18T06:00:53.868Z,30.74
2023-01-18T06:03:21.296Z,32.97
2023-01-18T06:05:48.556Z,31.83
2023-01-18T06:08:15.958Z,30.93
2023-01-18T06:10:43.598Z,31.81
2023-01-18T06:13:10.793Z,30.97
2023-01-18T06:15:37.838Z,30.67
2023-01-18T06:18:04.801Z,31.42
2023-01-18T06:20:31.816Z,30.14
2023-01-18T06:22:59.057Z,30.48
2023-01-18T06:25:26.103Z,30.67
2023-01-18T06:27:52.966Z,31.76
2023-01-18T06:30:20.344Z,30.52
2023-01-18T06:32:49.270Z,30.91
2023-01-18T06:35:16.563Z,30.97
2023-01-18T06:37:45.492Z,31.31
2023-01-18T06:40:12.599Z,31.31
2023-01-18T06:42:41.179Z,31.25
2023-01-18T06:45:08.516Z,32.27
2023-01-18T06:47:35.293Z,31.83
2023-01-18T06:50:02.195Z,32.06
2023-01-18T06:52:28.920Z,30.76
2023-01-18T06:54:55.769Z,30.81
2023-01-18T06:57:22.989Z,31.74
2023-01-18T06:59:49.848Z,31.70
2023-01-18T07:02:16.665Z,30.58
2023-01-18T07:04:45.315Z,31.66
2023-01-18T07:07:13.448Z,31.46
2023-01-18T07:09:40.193Z,32.34
2023-01-18T07:12:07.019Z,32.40
2023-01-18T07:14:34.318Z,31.21
2023-01-18T07:17:01.261Z,32.44
2023-01-18T07:19:28.068Z,32.98
2023-01-18T07:21:54.895Z,32.51
2023-01-18T07:24:22.389Z,31.17
2023-01-18T07:26:49.207Z,32.33
2023-01-18T07:29:16.279Z,31.29
2023-01-18T07:31:43.246Z,31.17
2023-01-18T07:34:10.980Z,29.98
2023-01-18T07:36:41.929Z,31.65
2023-01-18T07:39:09.936Z,30.86
2023-01-18T07:41:37.772Z,31.11
2023-01-18T07:44:05.147Z,30.71
2023-01-18T07:46:32.351Z,31.35
2023-01-18T07:48:59.360Z,30.32
2023-01-18T07:51:26.172Z,30.37
2023-01-18T07:53:54.696Z,30.55
2023-01-18T07:56:22.834Z,29.53
2023-01-18T07:58:49.732Z,29.30
2023-01-18T08:01:22.139Z,29.82
2023-01-18T08:03:50.298Z,31.00
2023-01-18T08:06:27.444Z,29.58
2023-01-18T08:08:55.943Z,30.37
2023-01-18T08:11:23.202Z,28.27
2023-01-18T08:13:52.495Z,27.77
2023-01-18T08:16:19.342Z,28.64
2023-01-18T08:18:49.270Z,30.09
2023-01-18T08:21:16.122Z,28.81
2023-01-18T08:23:43.089Z,29.34
2023-01-18T08:26:10.779Z,28.55
2023-01-18T08:28:37.619Z,28.09
2023-01-18T08:31:16.660Z,28.12
2023-01-18T08:33:46.025Z,29.34
2023-01-18T08:36:15.858Z,30.19
2023-01-18T08:38:42.947Z,30.68
2023-01-18T08:41:09.693Z,29.23
2023-01-18T08:43:37.998Z,28.54
2023-01-18T08:46:05.026Z,29.44
2023-01-18T08:48:31.849Z,29.92
2023-01-18T08:51:02.885Z,29.94
2023-01-18T08:53:30.858Z,31.27
2023-01-18T08:55:57.904Z,29.66
2023-01-18T08:58:25.195Z,29.29
2023-01-18T09:00:53.548Z,29.74
2023-01-18T09:03:22.290Z,28.95
2023-01-18T09:05:50.103Z,28.36
2023-01-18T09:08:17.961Z,26.79
2023-01-18T09:10:44.956Z,27.38
2023-01-18T09:13:11.749Z,28.30
2023-01-18T09:15:38.893Z,27.40
2023-01-18T09:18:07.659Z,28.52
2023-01-18T09:20:36.218Z,28.79
2023-01-18T09:23:07.671Z,27.77
2023-01-18T09:25:37.825Z,26.42
2023-01-18T09:28:05.196Z,26.14
2023-01-18T09:30:33.127Z,28.51
2023-01-18T09:33:01.114Z,28.30
2023-01-18T09:35:28.495Z,28.65
2023-01-18T09:37:56.869Z,27.68
2023-01-18T09:40:36.409Z,28.22
2023-01-18T09:43:03.484Z,29.77
2023-01-18T09:45:35.076Z,29.35
2023-01-18T09:48:28.901Z,29.26
2023-01-18T09:51:00.751Z,28.34
2023-01-18T09:53:53.422Z,29.80
2023-01-18T09:56:29.819Z,28.12
2023-01-18T09:59:35.754Z,28.50
2023-01-18T10:02:12.696Z,27.71
2023-01-18T10:04:43.282Z,27.93
2023-01-18T10:07:18.367Z,29.14
2023-01-18T10:09:50.310Z,28.80
2023-01-18T10:12:43.628Z,28.67
2023-01-18T10:15:28.151Z,28.72
2023-01-18T10:17:57.674Z,28.05
2023-01-18T10:20:45.519Z,28.10
2023-01-18T10:23:15.675Z,28.04
2023-01-18T10:25:52.350Z,27.83
2023-01-18T10:28:28.179Z,28.16
2023-01-18T10:31:36.736Z,28.43
2023-01-18T10:34:11.839Z,27.99
2023-01-18T10:36:43.806Z,28.40
2023-01-18T10:39:38.451Z,27.29
2023-01-18T10:42:29.291Z,27.54
2023-01-18T10:44:56.146Z,28.86
2023-01-18T10:47:22.949Z,27.82
2023-01-18T10:49:51.490Z,27.05
2023-01-18T10:52:29.744Z,28.23
2023-01-18T10:55:02.420Z,28.02
2023-01-18T10:57:36.922Z,28.65
2023-01-18T11:00:21.269Z,28.45
2023-01-18T11:02:50.672Z,26.67
2023-01-18T11:05:23.479Z,28.05
2023-01-18T11:08:12.182Z,28.30
2023-01-18T11:10:40.275Z,27.21
2023-01-18T11:13:47.218Z,28.91
2023-01-18T11:16:20.895Z,27.54
2023-01-18T11:19:17.493Z,27.74
2023-01-18T11:21:47.063Z,27.00
2023-01-18T11:24:42.436Z,28.09
2023-01-18T11:27:16.717Z,27.40
2023-01-18T11:29:45.981Z,26.72
2023-01-18T11:32:24.444Z,25.62
2023-01-18T11:34:54.637Z,26.16
2023-01-18T11:37:37.905Z,27.11
2023-01-18T11:40:26.736Z,26.75
2023-01-18T11:43:25.166Z,26.49
2023-01-18T11:45:59.515Z,26.99
2023-01-18T11:48:33.424Z,26.85
2023-01-18T11:51:10.241Z,26.23
2023-01-18T11:53:37.206Z,26.29
2023-01-18T11:56:14.864Z,25.62
2023-01-18T11:58:41.821Z,24.82
2023-01-18T12:01:37.756Z,24.65
2023-01-18T12:04:11.977Z,23.76
2023-01-18T12:06:54.978Z,24.01
2023-01-18T12:09:35.647Z,24.53
2023-01-18T12:12:19.830Z,23.58
2023-01-18T12:15:05.424Z,22.45
2023-01-18T12:18:13.539Z,20.68
2023-01-18T12:20:49.876Z,19.95
2023-01-18T12:23:28.779Z,19.04
2023-01-18T12:26:11.430Z,18.59
2023-01-18T12:28:45.047Z,19.58
2023-01-18T12:31:30.383Z,21.58
2023-01-18T12:34:27.070Z,20.97
2023-01-18T12:37:18.293Z,20.11
2023-01-18T12:40:21.880Z,19.59
2023-01-18T12:43:10.173Z,17.89
2023-01-18T12:45:52.029Z,17.91
2023-01-18T12:48:21.776Z,17.65
2023-01-18T12:50:51.153Z,19.12
2023-01-18T12:53:28.724Z,19.40
2023-01-18T12:55:56.583Z,18.50
2023-01-18T12:58:26.440Z,19.60
2023-01-18T13:01:05.746Z,18.06
2023-01-18T13:03:41.335Z,18.05
2023-01-18T13:06:09.915Z,16.68
2023-01-18T13:08:57.268Z,16.80
2023-01-18T13:11:41.543Z,20.12
2023-01-18T13:14:17.986Z,18.50
2023-01-18T13:17:10.949Z,19.09
2023-01-18T13:19:58.688Z,20.58
2023-01-18T13:22:37.535Z,19.43
2023-01-18T13:25:31.380Z,18.67
2023-01-18T13:28:02.235Z,17.84
2023-01-18T13:30:32.245Z,17.60
2023-01-18T13:32:59.919Z,17.25
2023-01-18T13:35:33.309Z,16.98
2023-01-18T13:38:12.498Z,16.87
2023-01-18T13:40:51.886Z,16.06
2023-01-18T13:43:35.372Z,15.82
2023-01-18T13:46:06.731Z,16.41
2023-01-18T13:48:54.405Z,16.70
2023-01-18T13:51:40.809Z,17.05
2023-01-18T13:54:14.897Z,18.04
2023-01-18T13:57:01.739Z,18.86
2023-01-18T13:59:33.911Z,19.69
2023-01-18T14:02:27.649Z,21.31
2023-01-18T14:05:25.785Z,21.76
2023-01-18T14:07:59.488Z,21.17
2023-01-18T14:10:31.424Z,21.42
2023-01-18T14:13:01.061Z,21.93
2023-01-18T14:15:39.591Z,21.67
2023-01-18T14:18:33.053Z,21.51
2023-01-18T14:21:12.427Z,21.70
2023-01-18T14:24:15.035Z,21.85
2023-01-18T14:26:44.183Z,22.28
2023-01-18T14:29:35.852Z,22.50
2023-01-18T14:32:06.712Z,22.92
2023-01-18T14:34:39.836Z,22.80
2023-01-18T14:37:29.781Z,22.84
2023-01-18T14:40:17.165Z,22.80
2023-01-18T14:42:49.614Z,22.94
2023-01-18T14:45:27.367Z,23.24
2023-01-18T14:47:56.234Z,23.62
2023-01-18T14:50:25.138Z,23.51
2023-01-18T14:52:53.155Z,23.76
2023-01-18T14:56:01.215Z,23.94
2023-01-18T14:58:28.157Z,23.47
2023-01-18T15:00:55.332Z,23.73
2023-01-18T15:03:30.689Z,23.53
2023-01-18T15:06:11.302Z,23.32
2023-01-18T15:08:40.182Z,23.27
2023-01-18T15:11:07.316Z,23.61
2023-01-18T15:13:47.596Z,23.32
2023-01-18T15:16:21.666Z,23.49
2023-01-18T15:18:53.922Z,23.53
2023-01-18T15:21:24.664Z,23.44
2023-01-18T15:23:57.889Z,23.96
2023-01-18T15:26:40.080Z,23.43
2023-01-18T15:29:14.055Z,23.78
2023-01-18T15:31:47.534Z,23.59
2023-01-18T15:34:16.702Z,23.48
2023-01-18T15:36:44.794Z,25.04
2023-01-18T15:39:13.962Z,24.96
2023-01-18T15:41:44.044Z,24.37
2023-01-18T15:44:47.939Z,24.12
2023-01-18T15:47:24.576Z,24.30
2023-01-18T15:49:53.824Z,24.34
2023-01-18T15:52:43.994Z,24.01
2023-01-18T15:55:35.942Z,24.49
2023-01-18T15:58:25.073Z,24.28
2023-01-18T16:00:58.300Z,24.48
2023-01-18T16:03:34.108Z,24.84
2023-01-18T16:06:12.699Z,24.45
2023-01-18T16:09:00.327Z,25.28
2023-01-18T16:11:30.319Z,24.57
2023-01-18T16:13:59.089Z,25.02
2023-01-18T16:16:26.948Z,25.19
2023-01-18T16:19:19.520Z,24.93
2023-01-18T16:21:59.697Z,24.82
2023-01-18T16:24:29.732Z,24.72
2023-01-18T16:27:00.396Z,24.80
2023-01-18T16:29:27.389Z,25.80
2023-01-18T16:32:19.412Z,25.51
2023-01-18T16:34:46.364Z,24.50
2023-01-18T16:37:13.427Z,24.24
2023-01-18T16:39:41.043Z,23.99
2023-01-18T16:42:11.095Z,24.32
2023-01-18T16:44:39.611Z,24.41
2023-01-18T16:47:06.546Z,24.31
2023-01-18T16:49:33.288Z,24.11
2023-01-18T16:52:00.162Z,24.22
2023-01-18T16:54:26.907Z,24.50
2023-01-18T16:56:53.781Z,24.36
2023-01-18T16:59:22.292Z,24.20
2023-01-18T17:01:50.348Z,23.54
2023-01-18T17:04:17.833Z,23.56
2023-01-18T17:06:45.054Z,23.88
2023-01-18T17:09:20.060Z,23.28
2023-01-18T17:11:47.947Z,24.31
2023-01-18T17:14:15.180Z,24.18
2023-01-18T17:16:43.314Z,23.94
2023-01-18T17:19:21.317Z,24.43
2023-01-18T17:21:50.126Z,24.70
2023-01-18T17:24:21.141Z,25.54
2023-01-18T17:26:48.444Z,25.39
2023-01-18T17:29:17.957Z,25.35
2023-01-18T17:31:52.227Z,25.41
2023-01-18T17:34:28.399Z,25.31
2023-01-18T17:36:58.264Z,25.12
2023-01-18T17:39:32.123Z,24.92
2023-01-18T17:42:14.287Z,25.06
2023-01-18T17:44:43.506Z,25.73
2023-01-18T17:47:10.440Z,25.32
2023-01-18T17:49:37.091Z,25.37
2023-01-18T17:52:04.083Z,24.97
2023-01-18T17:54:30.857Z,25.42
2023-01-18T17:56:58.060Z,25.39
2023-01-18T17:59:24.787Z,25.51
2023-01-18T18:01:51.680Z,25.54
2023-01-18T18:04:18.632Z,25.99
2023-01-18T18:06:53.720Z,26.09
2023-01-18T18:09:20.957Z,26.61
2023-01-18T18:11:48.084Z,25.92
2023-01-18T18:14:17.026Z,26.31
2023-01-18T18:16:44.628Z,26.41
2023-01-18T18:19:14.561Z,26.31
2023-01-18T18:21:43.000Z,26.33
2023-01-18T18:24:10.080Z,27.20
2023-01-18T18:26:37.065Z,27.42
2023-01-18T18:29:04.184Z,27.19
2023-01-18T18:31:31.110Z,27.07
2023-01-18T18:33:58.240Z,26.90
2023-01-18T18:36:27.475Z,28.09
2023-01-18T18:38:54.513Z,28.30
2023-01-18T18:41:21.671Z,28.50
2023-01-18T18:43:48.383Z,28.23
2023-01-18T18:46:15.236Z,28.41
2023-01-18T18:48:42.624Z,29.25
2023-01-18T18:51:09.968Z,29.04
2023-01-18T18:53:40.069Z,29.61
2023-01-18T18:56:10.333Z,29.43
2023-01-18T18:58:38.460Z,30.25
2023-01-18T19:01:06.572Z,29.54
2023-01-18T19:03:36.917Z,29.06
2023-01-18T19:06:03.737Z,28.89
2023-01-18T19:08:31.013Z,28.86
2023-01-18T19:10:57.836Z,29.21
2023-01-18T19:13:24.535Z,29.86
2023-01-18T19:15:51.739Z,29.69
2023-01-18T19:18:18.678Z,29.80
2023-01-18T19:20:46.205Z,31.16
2023-01-18T19:23:13.354Z,31.04
2023-01-18T19:25:40.660Z,32.00
2023-01-18T19:28:07.771Z,32.07
2023-01-18T19:30:34.913Z,32.73
2023-01-18T19:33:03.226Z,31.96
2023-01-18T19:35:31.216Z,31.01
2023-01-18T19:38:00.866Z,30.76
2023-01-18T19:40:27.739Z,31.27
2023-01-18T19:42:54.653Z,30.85
2023-01-18T19:45:28.290Z,30.70
2023-01-18T19:47:58.523Z,33.41
2023-01-18T19:50:27.008Z,30.99
2023-01-18T19:52:54.644Z,31.19
2023-01-18T19:55:21.725Z,31.27
2023-01-18T19:57:49.874Z,31.63
2023-01-18T20:00:17.079Z,31.63
2023-01-18T20:02:44.415Z,31.46
2023-01-18T20:05:11.320Z,31.83
2023-01-18T20:07:39.567Z,32.49
2023-01-18T20:10:07.728Z,32.71
2023-01-18T20:12:35.027Z,32.40
2023-01-18T20:15:01.850Z,32.75
2023-01-18T20:17:28.734Z,32.36
2023-01-18T20:19:55.467Z,32.08
2023-01-18T20:22:23.613Z,32.33
2023-01-18T20:24:51.447Z,31.61
2023-01-18T20:27:18.166Z,31.66
2023-01-18T20:29:45.411Z,31.75
2023-01-18T20:32:16.503Z,31.58
2023-01-18T20:34:45.299Z,31.51
2023-01-18T20:37:15.964Z,32.19
2023-01-18T20:39:42.942Z,33.44
2023-01-18T20:42:10.143Z,35.51
2023-01-18T20:44:37.493Z,32.88
2023-01-18T20:47:04.917Z,32.63
2023-01-18T20:49:39.230Z,32.89
2023-01-18T20:52:07.527Z,32.23
2023-01-18T20:54:36.312Z,31.72
2023-01-18T20:57:04.729Z,32.69
2023-01-18T20:59:31.642Z,33.29
2023-01-18T21:01:58.556Z,32.43
2023-01-18T21:04:25.591Z,31.98
2023-01-18T21:06:52.599Z,32.17
2023-01-18T21:09:19.391Z,31.61
2023-01-18T21:11:46.227Z,31.11
2023-01-18T21:14:13.040Z,30.80
2023-01-18T21:16:40.363Z,31.34
2023-01-18T21:19:07.274Z,31.96
2023-01-18T21:21:34.020Z,32.09
2023-01-18T21:24:01.239Z,32.97
2023-01-18T21:26:28.174Z,32.71
2023-01-18T21:28:55.251Z,32.59
2023-01-18T21:31:22.009Z,32.37
2023-01-18T21:33:49.403Z,33.89
2023-01-18T21:36:17.931Z,34.55
2023-01-18T21:38:45.027Z,32.30
2023-01-18T21:41:30.633Z,31.41
2023-01-18T21:44:15.737Z,33.69
2023-01-18T21:46:47.283Z,32.32
2023-01-18T21:49:47.063Z,32.02
2023-01-18T21:52:38.315Z,32.91
2023-01-18T21:55:05.566Z,32.21
2023-01-18T21:57:35.048Z,31.81
2023-01-18T22:00:02.296Z,32.32
2023-01-18T22:02:34.382Z,31.57
2023-01-18T22:05:03.283Z,31.75
2023-01-18T22:07:32.750Z,31.27
2023-01-18T22:10:04.987Z,31.84
2023-01-18T22:12:36.101Z,31.31
2023-01-18T22:15:04.452Z,31.55
2023-01-18T22:17:31.732Z,31.04
2023-01-18T22:19:58.431Z,30.67
2023-01-18T22:22:25.187Z,31.84
2023-01-18T22:24:52.137Z,32.87
2023-01-18T22:27:18.911Z,31.95
2023-01-18T22:29:45.740Z,32.46
2023-01-18T22:32:12.711Z,32.10
2023-01-18T22:34:39.595Z,31.35
2023-01-18T22:37:07.375Z,31.27
2023-01-18T22:39:34.220Z,31.53
2023-01-18T22:42:00.978Z,31.26
2023-01-18T22:44:27.730Z,31.66
2023-01-18T22:46:54.574Z,32.22
2023-01-18T22:49:21.836Z,30.88
2023-01-18T22:51:48.688Z,31.07
2023-01-18T22:54:16.014Z,32.30
2023-01-18T22:56:43.891Z,31.35
2023-01-18T22:59:13.051Z,30.78
2023-01-18T23:01:40.065Z,30.21
2023-01-18T23:04:06.815Z,30.47
2023-01-18T23:06:45.567Z,30.01
2023-01-18T23:09:14.598Z,30.59
2023-01-18T23:11:41.520Z,30.11
2023-01-18T23:14:27.793Z,30.05
2023-01-18T23:17:13.583Z,30.08
2023-01-18T23:19:40.584Z,30.02
2023-01-18T23:22:07.669Z,30.48
2023-01-18T23:24:36.632Z,30.93
2023-01-18T23:27:04.672Z,29.91
2023-01-18T23:29:31.620Z,28.86
2023-01-18T23:31:58.720Z,29.10
2023-01-18T23:34:25.831Z,29.63
2023-01-18T23:36:53.040Z,29.01
2023-01-18T23:39:38.740Z,28.35
2023-01-18T23:42:24.415Z,28.85
2023-01-18T23:45:09.829Z,28.80
2023-01-18T23:47:55.622Z,28.21
2023-01-18T23:50:41.338Z,28.06
2023-01-18T23:53:30.576Z,27.46
2023-01-18T23:55:57.879Z,27.71
2023-01-18T23:58:25.653Z,27.76
